sensor_id;sensor_type;location;lat;lon;timestamp;temperature;humidity
12622;DHT22;6376;48.182;-1.644;2024-02-23T00:02:24;13.00;93.80
12622;DHT22;6376;48.182;-1.644;2024-02-23T00:04:50;13.00;93.80
12622;DHT22;6376;48.182;-1.644;2024-02-23T00:07:16;13.00;93.80
12622;DHT22;6376;48.182;-1.644;2024-02-23T00:09:41;12.90;93.90
12622;DHT22;6376;48.182;-1.644;2024-02-23T00:12:07;12.90;94.00
12622;DHT22;6376;48.182;-1.644;2024-02-23T00:14:34;12.90;94.00
12622;DHT22;6376;48.182;-1.644;2024-02-23T00:17:02;12.90;94.00
12622;DHT22;6376;48.182;-1.644;2024-02-23T00:19:29;12.90;94.00
12622;DHT22;6376;48.182;-1.644;2024-02-23T00:21:55;12.90;94.00
12622;DHT22;6376;48.182;-1.644;2024-02-23T00:24:20;12.90;94.00
12622;DHT22;6376;48.182;-1.644;2024-02-23T00:26:47;12.90;94.00
12622;DHT22;6376;48.182;-1.644;2024-02-23T00:29:13;12.90;93.90
12622;DHT22;6376;48.182;-1.644;2024-02-23T00:31:39;12.90;94.10
12622;DHT22;6376;48.182;-1.644;2024-02-23T00:34:08;12.90;94.00
12622;DHT22;6376;48.182;-1.644;2024-02-23T00:36:38;12.90;94.10
12622;DHT22;6376;48.182;-1.644;2024-02-23T00:39:04;12.90;94.30
12622;DHT22;6376;48.182;-1.644;2024-02-23T00:41:29;12.80;94.10
12622;DHT22;6376;48.182;-1.644;2024-02-23T00:43:55;12.80;94.00
12622;DHT22;6376;48.182;-1.644;2024-02-23T00:46:20;12.80;93.90
12622;DHT22;6376;48.182;-1.644;2024-02-23T00:48:46;12.80;94.10
12622;DHT22;6376;48.182;-1.644;2024-02-23T00:51:12;12.80;94.20
12622;DHT22;6376;48.182;-1.644;2024-02-23T00:53:38;12.80;94.10
12622;DHT22;6376;48.182;-1.644;2024-02-23T00:56:04;12.80;94.20
12622;DHT22;6376;48.182;-1.644;2024-02-23T00:58:29;12.80;94.10
12622;DHT22;6376;48.182;-1.644;2024-02-23T01:00:55;12.80;94.10
12622;DHT22;6376;48.182;-1.644;2024-02-23T01:03:21;12.70;94.00
12622;DHT22;6376;48.182;-1.644;2024-02-23T01:05:46;12.80;94.00
12622;DHT22;6376;48.182;-1.644;2024-02-23T01:08:12;12.80;94.00
12622;DHT22;6376;48.182;-1.644;2024-02-23T01:10:38;12.70;94.10
12622;DHT22;6376;48.182;-1.644;2024-02-23T01:13:03;12.70;94.10
12622;DHT22;6376;48.182;-1.644;2024-02-23T01:15:30;12.70;94.00
12622;DHT22;6376;48.182;-1.644;2024-02-23T01:17:56;12.70;94.10
12622;DHT22;6376;48.182;-1.644;2024-02-23T01:20:22;12.70;94.10
12622;DHT22;6376;48.182;-1.644;2024-02-23T01:22:47;12.70;94.10
12622;DHT22;6376;48.182;-1.644;2024-02-23T01:25:13;12.70;94.00
12622;DHT22;6376;48.182;-1.644;2024-02-23T01:27:41;12.70;94.10
12622;DHT22;6376;48.182;-1.644;2024-02-23T01:30:07;12.70;94.30
12622;DHT22;6376;48.182;-1.644;2024-02-23T01:32:33;12.70;94.20
12622;DHT22;6376;48.182;-1.644;2024-02-23T01:34:59;12.70;94.20
12622;DHT22;6376;48.182;-1.644;2024-02-23T01:37:24;12.70;94.30
12622;DHT22;6376;48.182;-1.644;2024-02-23T01:39:50;12.70;94.20
12622;DHT22;6376;48.182;-1.644;2024-02-23T01:42:15;12.70;94.20
12622;DHT22;6376;48.182;-1.644;2024-02-23T01:44:41;12.60;94.00
12622;DHT22;6376;48.182;-1.644;2024-02-23T01:47:07;12.60;94.00
12622;DHT22;6376;48.182;-1.644;2024-02-23T01:49:33;12.60;94.10
12622;DHT22;6376;48.182;-1.644;2024-02-23T01:52:00;12.60;94.00
12622;DHT22;6376;48.182;-1.644;2024-02-23T01:54:27;12.60;93.90
12622;DHT22;6376;48.182;-1.644;2024-02-23T01:56:55;12.60;94.00
12622;DHT22;6376;48.182;-1.644;2024-02-23T01:59:23;12.60;94.20
12622;DHT22;6376;48.182;-1.644;2024-02-23T02:01:49;12.60;94.00
12622;DHT22;6376;48.182;-1.644;2024-02-23T02:04:14;12.60;94.30
12622;DHT22;6376;48.182;-1.644;2024-02-23T02:06:40;12.60;94.00
12622;DHT22;6376;48.182;-1.644;2024-02-23T02:09:06;12.50;93.80
12622;DHT22;6376;48.182;-1.644;2024-02-23T02:11:32;12.50;93.80
12622;DHT22;6376;48.182;-1.644;2024-02-23T02:13:57;12.50;94.00
12622;DHT22;6376;48.182;-1.644;2024-02-23T02:16:23;12.60;93.90
12622;DHT22;6376;48.182;-1.644;2024-02-23T02:18:48;12.50;94.00
12622;DHT22;6376;48.182;-1.644;2024-02-23T02:21:14;12.60;94.00
12622;DHT22;6376;48.182;-1.644;2024-02-23T02:23:40;12.60;93.90
12622;DHT22;6376;48.182;-1.644;2024-02-23T02:26:05;12.50;94.00
12622;DHT22;6376;48.182;-1.644;2024-02-23T02:28:31;12.60;94.10
12622;DHT22;6376;48.182;-1.644;2024-02-23T02:30:57;12.60;94.00
12622;DHT22;6376;48.182;-1.644;2024-02-23T02:33:22;12.50;93.90
12622;DHT22;6376;48.182;-1.644;2024-02-23T02:35:49;12.50;94.00
12622;DHT22;6376;48.182;-1.644;2024-02-23T02:38:18;12.50;93.80
12622;DHT22;6376;48.182;-1.644;2024-02-23T02:40:43;12.50;94.00
12622;DHT22;6376;48.182;-1.644;2024-02-23T02:43:09;12.50;93.80
12622;DHT22;6376;48.182;-1.644;2024-02-23T02:45:35;12.50;93.90
12622;DHT22;6376;48.182;-1.644;2024-02-23T02:48:01;12.50;94.00
12622;DHT22;6376;48.182;-1.644;2024-02-23T02:50:29;12.50;94.10
12622;DHT22;6376;48.182;-1.644;2024-02-23T02:52:55;12.40;94.10
12622;DHT22;6376;48.182;-1.644;2024-02-23T02:55:20;12.40;94.00
12622;DHT22;6376;48.182;-1.644;2024-02-23T02:57:46;12.40;94.10
12622;DHT22;6376;48.182;-1.644;2024-02-23T03:00:12;12.40;94.30
12622;DHT22;6376;48.182;-1.644;2024-02-23T03:02:38;12.50;94.30
12622;DHT22;6376;48.182;-1.644;2024-02-23T03:05:04;12.50;94.50
12622;DHT22;6376;48.182;-1.644;2024-02-23T03:07:30;12.40;94.10
12622;DHT22;6376;48.182;-1.644;2024-02-23T03:09:56;12.40;94.10
12622;DHT22;6376;48.182;-1.644;2024-02-23T03:12:21;12.40;94.20
12622;DHT22;6376;48.182;-1.644;2024-02-23T03:14:47;12.40;94.00
12622;DHT22;6376;48.182;-1.644;2024-02-23T03:17:13;12.40;94.00
12622;DHT22;6376;48.182;-1.644;2024-02-23T03:19:39;12.40;94.10
12622;DHT22;6376;48.182;-1.644;2024-02-23T03:22:05;12.40;94.00
12622;DHT22;6376;48.182;-1.644;2024-02-23T03:24:30;12.40;94.00
12622;DHT22;6376;48.182;-1.644;2024-02-23T03:26:56;12.40;93.90
12622;DHT22;6376;48.182;-1.644;2024-02-23T03:29:22;12.40;94.00
12622;DHT22;6376;48.182;-1.644;2024-02-23T03:31:57;12.40;94.40
12622;DHT22;6376;48.182;-1.644;2024-02-23T03:34:23;12.40;94.00
12622;DHT22;6376;48.182;-1.644;2024-02-23T03:36:48;12.30;94.00
12622;DHT22;6376;48.182;-1.644;2024-02-23T03:39:14;12.40;94.00
12622;DHT22;6376;48.182;-1.644;2024-02-23T03:41:40;12.30;94.00
12622;DHT22;6376;48.182;-1.644;2024-02-23T03:44:05;12.30;94.00
12622;DHT22;6376;48.182;-1.644;2024-02-23T03:46:31;12.30;94.00
12622;DHT22;6376;48.182;-1.644;2024-02-23T03:48:57;12.30;94.10
12622;DHT22;6376;48.182;-1.644;2024-02-23T03:51:23;12.30;94.30
12622;DHT22;6376;48.182;-1.644;2024-02-23T03:53:49;12.30;94.20
12622;DHT22;6376;48.182;-1.644;2024-02-23T03:56:16;12.30;94.20
12622;DHT22;6376;48.182;-1.644;2024-02-23T03:58:41;12.30;94.20
12622;DHT22;6376;48.182;-1.644;2024-02-23T04:01:07;12.30;94.10
12622;DHT22;6376;48.182;-1.644;2024-02-23T04:03:33;12.30;94.20
12622;DHT22;6376;48.182;-1.644;2024-02-23T04:05:58;12.30;94.10
12622;DHT22;6376;48.182;-1.644;2024-02-23T04:08:24;12.30;94.50
12622;DHT22;6376;48.182;-1.644;2024-02-23T04:10:49;12.30;94.30
12622;DHT22;6376;48.182;-1.644;2024-02-23T04:13:15;12.30;94.20
12622;DHT22;6376;48.182;-1.644;2024-02-23T04:15:43;12.30;94.30
12622;DHT22;6376;48.182;-1.644;2024-02-23T04:18:09;12.30;94.30
12622;DHT22;6376;48.182;-1.644;2024-02-23T04:20:35;12.30;94.20
12622;DHT22;6376;48.182;-1.644;2024-02-23T04:23:00;12.30;94.30
12622;DHT22;6376;48.182;-1.644;2024-02-23T04:25:26;12.30;94.30
12622;DHT22;6376;48.182;-1.644;2024-02-23T04:27:52;12.30;94.20
12622;DHT22;6376;48.182;-1.644;2024-02-23T04:30:17;12.30;94.30
12622;DHT22;6376;48.182;-1.644;2024-02-23T04:32:43;12.30;94.30
12622;DHT22;6376;48.182;-1.644;2024-02-23T04:35:10;12.30;94.20
12622;DHT22;6376;48.182;-1.644;2024-02-23T04:37:35;12.30;94.30
12622;DHT22;6376;48.182;-1.644;2024-02-23T04:40:01;12.30;94.30
12622;DHT22;6376;48.182;-1.644;2024-02-23T04:42:27;12.30;94.30
12622;DHT22;6376;48.182;-1.644;2024-02-23T04:44:53;12.20;94.30
12622;DHT22;6376;48.182;-1.644;2024-02-23T04:47:20;12.30;94.30
12622;DHT22;6376;48.182;-1.644;2024-02-23T04:49:46;12.30;94.30
12622;DHT22;6376;48.182;-1.644;2024-02-23T04:52:11;12.30;94.40
12622;DHT22;6376;48.182;-1.644;2024-02-23T04:54:37;12.20;94.30
12622;DHT22;6376;48.182;-1.644;2024-02-23T04:57:03;12.30;94.30
12622;DHT22;6376;48.182;-1.644;2024-02-23T04:59:29;12.20;94.30
12622;DHT22;6376;48.182;-1.644;2024-02-23T05:01:57;12.20;94.30
12622;DHT22;6376;48.182;-1.644;2024-02-23T05:04:22;12.20;94.30
12622;DHT22;6376;48.182;-1.644;2024-02-23T05:06:48;12.20;94.30
12622;DHT22;6376;48.182;-1.644;2024-02-23T05:09:14;12.20;94.30
12622;DHT22;6376;48.182;-1.644;2024-02-23T05:11:39;12.20;94.30
12622;DHT22;6376;48.182;-1.644;2024-02-23T05:14:05;12.20;94.40
12622;DHT22;6376;48.182;-1.644;2024-02-23T05:16:31;12.20;94.30
12622;DHT22;6376;48.182;-1.644;2024-02-23T05:18:57;12.20;94.20
12622;DHT22;6376;48.182;-1.644;2024-02-23T05:21:23;12.20;94.40
12622;DHT22;6376;48.182;-1.644;2024-02-23T05:23:48;12.20;94.30
12622;DHT22;6376;48.182;-1.644;2024-02-23T05:26:14;12.20;94.40
12622;DHT22;6376;48.182;-1.644;2024-02-23T05:28:41;12.20;94.20
12622;DHT22;6376;48.182;-1.644;2024-02-23T05:31:07;12.20;94.30
12622;DHT22;6376;48.182;-1.644;2024-02-23T05:33:32;12.20;94.40
12622;DHT22;6376;48.182;-1.644;2024-02-23T05:35:58;12.20;94.30
12622;DHT22;6376;48.182;-1.644;2024-02-23T05:38:23;12.20;94.20
12622;DHT22;6376;48.182;-1.644;2024-02-23T05:40:49;12.20;94.30
12622;DHT22;6376;48.182;-1.644;2024-02-23T05:43:14;12.20;94.20
12622;DHT22;6376;48.182;-1.644;2024-02-23T05:45:40;12.20;94.20
12622;DHT22;6376;48.182;-1.644;2024-02-23T05:48:06;12.20;94.20
12622;DHT22;6376;48.182;-1.644;2024-02-23T05:50:32;12.20;94.10
12622;DHT22;6376;48.182;-1.644;2024-02-23T05:52:58;12.20;94.20
12622;DHT22;6376;48.182;-1.644;2024-02-23T05:55:24;12.20;94.20
12622;DHT22;6376;48.182;-1.644;2024-02-23T05:57:50;12.20;94.20
12622;DHT22;6376;48.182;-1.644;2024-02-23T06:00:17;12.20;94.30
12622;DHT22;6376;48.182;-1.644;2024-02-23T06:02:44;12.10;94.50
12622;DHT22;6376;48.182;-1.644;2024-02-23T06:05:11;12.10;94.10
12622;DHT22;6376;48.182;-1.644;2024-02-23T06:07:37;12.20;94.10
12622;DHT22;6376;48.182;-1.644;2024-02-23T06:10:03;12.20;94.10
12622;DHT22;6376;48.182;-1.644;2024-02-23T06:12:28;12.10;94.10
12622;DHT22;6376;48.182;-1.644;2024-02-23T06:14:54;12.10;94.10
12622;DHT22;6376;48.182;-1.644;2024-02-23T06:17:22;12.10;94.00
12622;DHT22;6376;48.182;-1.644;2024-02-23T06:19:48;12.10;94.10
12622;DHT22;6376;48.182;-1.644;2024-02-23T06:22:14;12.10;94.00
12622;DHT22;6376;48.182;-1.644;2024-02-23T06:24:42;12.10;94.10
12622;DHT22;6376;48.182;-1.644;2024-02-23T06:27:08;12.10;94.00
12622;DHT22;6376;48.182;-1.644;2024-02-23T06:29:33;12.10;94.10
12622;DHT22;6376;48.182;-1.644;2024-02-23T06:31:59;12.10;94.10
12622;DHT22;6376;48.182;-1.644;2024-02-23T06:34:26;12.00;94.10
12622;DHT22;6376;48.182;-1.644;2024-02-23T06:36:52;12.10;94.10
12622;DHT22;6376;48.182;-1.644;2024-02-23T06:39:18;12.10;94.10
12622;DHT22;6376;48.182;-1.644;2024-02-23T06:41:43;12.10;94.10
12622;DHT22;6376;48.182;-1.644;2024-02-23T06:44:09;12.10;94.40
12622;DHT22;6376;48.182;-1.644;2024-02-23T06:46:35;12.10;94.20
12622;DHT22;6376;48.182;-1.644;2024-02-23T06:49:00;12.10;94.10
12622;DHT22;6376;48.182;-1.644;2024-02-23T06:51:26;12.10;94.30
12622;DHT22;6376;48.182;-1.644;2024-02-23T06:53:51;12.00;94.10
12622;DHT22;6376;48.182;-1.644;2024-02-23T06:56:17;12.00;94.20
12622;DHT22;6376;48.182;-1.644;2024-02-23T06:58:43;12.00;94.20
12622;DHT22;6376;48.182;-1.644;2024-02-23T07:01:08;12.00;94.20
12622;DHT22;6376;48.182;-1.644;2024-02-23T07:03:37;12.00;94.10
12622;DHT22;6376;48.182;-1.644;2024-02-23T07:06:04;12.00;94.00
12622;DHT22;6376;48.182;-1.644;2024-02-23T07:08:30;12.00;94.00
12622;DHT22;6376;48.182;-1.644;2024-02-23T07:10:55;12.00;94.20
12622;DHT22;6376;48.182;-1.644;2024-02-23T07:13:21;12.00;94.20
12622;DHT22;6376;48.182;-1.644;2024-02-23T07:15:47;12.00;94.00
12622;DHT22;6376;48.182;-1.644;2024-02-23T07:18:12;12.00;94.00
12622;DHT22;6376;48.182;-1.644;2024-02-23T07:20:38;12.00;93.90
12622;DHT22;6376;48.182;-1.644;2024-02-23T07:23:04;12.00;94.00
12622;DHT22;6376;48.182;-1.644;2024-02-23T07:25:30;12.00;94.10
12622;DHT22;6376;48.182;-1.644;2024-02-23T07:27:56;12.00;94.20
12622;DHT22;6376;48.182;-1.644;2024-02-23T07:30:22;11.90;94.20
12622;DHT22;6376;48.182;-1.644;2024-02-23T07:32:48;12.00;94.00
12622;DHT22;6376;48.182;-1.644;2024-02-23T07:35:13;12.00;93.90
12622;DHT22;6376;48.182;-1.644;2024-02-23T07:37:39;11.90;93.90
12622;DHT22;6376;48.182;-1.644;2024-02-23T07:40:05;12.00;94.10
12622;DHT22;6376;48.182;-1.644;2024-02-23T07:42:32;12.00;93.90
12622;DHT22;6376;48.182;-1.644;2024-02-23T07:44:58;12.00;93.90
12622;DHT22;6376;48.182;-1.644;2024-02-23T07:47:24;12.00;93.90
12622;DHT22;6376;48.182;-1.644;2024-02-23T07:49:52;12.00;93.90
12622;DHT22;6376;48.182;-1.644;2024-02-23T07:52:19;12.00;93.90
12622;DHT22;6376;48.182;-1.644;2024-02-23T07:54:44;12.00;93.80
12622;DHT22;6376;48.182;-1.644;2024-02-23T07:57:10;11.90;93.90
12622;DHT22;6376;48.182;-1.644;2024-02-23T07:59:36;12.00;94.00
12622;DHT22;6376;48.182;-1.644;2024-02-23T08:02:01;12.00;94.10
12622;DHT22;6376;48.182;-1.644;2024-02-23T08:04:27;12.00;94.10
12622;DHT22;6376;48.182;-1.644;2024-02-23T08:06:52;12.00;94.10
12622;DHT22;6376;48.182;-1.644;2024-02-23T08:09:18;12.00;94.00
12622;DHT22;6376;48.182;-1.644;2024-02-23T08:11:44;12.00;94.10
12622;DHT22;6376;48.182;-1.644;2024-02-23T08:14:11;12.00;94.00
12622;DHT22;6376;48.182;-1.644;2024-02-23T08:16:37;12.00;94.00
12622;DHT22;6376;48.182;-1.644;2024-02-23T08:19:03;12.00;94.00
12622;DHT22;6376;48.182;-1.644;2024-02-23T08:21:28;12.00;94.00
12622;DHT22;6376;48.182;-1.644;2024-02-23T08:23:54;12.00;94.00
12622;DHT22;6376;48.182;-1.644;2024-02-23T08:26:20;12.00;94.00
12622;DHT22;6376;48.182;-1.644;2024-02-23T08:28:45;12.10;94.00
12622;DHT22;6376;48.182;-1.644;2024-02-23T08:31:11;12.10;93.70
12622;DHT22;6376;48.182;-1.644;2024-02-23T08:33:36;12.20;93.50
12622;DHT22;6376;48.182;-1.644;2024-02-23T08:36:02;12.30;93.40
12622;DHT22;6376;48.182;-1.644;2024-02-23T08:38:31;12.30;93.30
12622;DHT22;6376;48.182;-1.644;2024-02-23T08:40:57;12.20;93.20
12622;DHT22;6376;48.182;-1.644;2024-02-23T08:43:24;12.20;93.40
12622;DHT22;6376;48.182;-1.644;2024-02-23T08:45:49;12.20;93.40
12622;DHT22;6376;48.182;-1.644;2024-02-23T08:48:15;12.30;93.30
12622;DHT22;6376;48.182;-1.644;2024-02-23T08:50:41;12.20;93.30
12622;DHT22;6376;48.182;-1.644;2024-02-23T08:53:07;12.20;93.50
12622;DHT22;6376;48.182;-1.644;2024-02-23T08:55:32;12.20;93.30
12622;DHT22;6376;48.182;-1.644;2024-02-23T08:57:58;12.20;93.30
12622;DHT22;6376;48.182;-1.644;2024-02-23T09:00:24;12.20;93.30
12622;DHT22;6376;48.182;-1.644;2024-02-23T09:02:50;12.30;93.40
12622;DHT22;6376;48.182;-1.644;2024-02-23T09:05:16;12.30;93.30
12622;DHT22;6376;48.182;-1.644;2024-02-23T09:07:41;12.40;93.50
12622;DHT22;6376;48.182;-1.644;2024-02-23T09:10:07;12.40;93.40
12622;DHT22;6376;48.182;-1.644;2024-02-23T09:12:34;12.40;93.20
12622;DHT22;6376;48.182;-1.644;2024-02-23T09:14:59;12.50;93.10
12622;DHT22;6376;48.182;-1.644;2024-02-23T09:17:25;12.50;93.10
12622;DHT22;6376;48.182;-1.644;2024-02-23T09:19:51;12.60;93.10
12622;DHT22;6376;48.182;-1.644;2024-02-23T09:22:16;12.60;93.10
12622;DHT22;6376;48.182;-1.644;2024-02-23T09:24:42;12.60;92.90
12622;DHT22;6376;48.182;-1.644;2024-02-23T09:27:08;12.60;92.90
12622;DHT22;6376;48.182;-1.644;2024-02-23T09:29:34;12.50;92.70
12622;DHT22;6376;48.182;-1.644;2024-02-23T09:32:00;12.40;92.70
12622;DHT22;6376;48.182;-1.644;2024-02-23T09:34:26;12.40;92.80
12622;DHT22;6376;48.182;-1.644;2024-02-23T09:36:52;12.30;92.80
12622;DHT22;6376;48.182;-1.644;2024-02-23T09:39:18;12.40;93.00
12622;DHT22;6376;48.182;-1.644;2024-02-23T09:41:45;12.30;93.00
12622;DHT22;6376;48.182;-1.644;2024-02-23T09:44:11;12.40;93.00
12622;DHT22;6376;48.182;-1.644;2024-02-23T09:46:38;12.30;93.10
12622;DHT22;6376;48.182;-1.644;2024-02-23T09:49:05;12.30;93.10
12622;DHT22;6376;48.182;-1.644;2024-02-23T09:51:33;12.30;93.20
12622;DHT22;6376;48.182;-1.644;2024-02-23T09:54:01;12.30;93.10
12622;DHT22;6376;48.182;-1.644;2024-02-23T09:56:28;12.30;93.20
12622;DHT22;6376;48.182;-1.644;2024-02-23T09:59:00;12.30;93.00
12622;DHT22;6376;48.182;-1.644;2024-02-23T10:01:31;12.30;93.10
12622;DHT22;6376;48.182;-1.644;2024-02-23T10:03:59;12.30;93.10
12622;DHT22;6376;48.182;-1.644;2024-02-23T10:06:25;12.30;93.00
12622;DHT22;6376;48.182;-1.644;2024-02-23T10:08:51;12.30;93.10
12622;DHT22;6376;48.182;-1.644;2024-02-23T10:11:23;12.30;92.90
12622;DHT22;6376;48.182;-1.644;2024-02-23T10:13:50;12.30;93.10
12622;DHT22;6376;48.182;-1.644;2024-02-23T10:16:17;12.30;93.20
12622;DHT22;6376;48.182;-1.644;2024-02-23T10:18:43;12.30;93.20
12622;DHT22;6376;48.182;-1.644;2024-02-23T10:21:09;12.30;93.20
12622;DHT22;6376;48.182;-1.644;2024-02-23T10:23:34;12.30;93.10
12622;DHT22;6376;48.182;-1.644;2024-02-23T10:26:00;12.30;93.20
12622;DHT22;6376;48.182;-1.644;2024-02-23T10:28:27;12.30;93.30
12622;DHT22;6376;48.182;-1.644;2024-02-23T10:30:53;12.30;93.20
12622;DHT22;6376;48.182;-1.644;2024-02-23T10:33:22;12.30;93.20
12622;DHT22;6376;48.182;-1.644;2024-02-23T10:35:53;12.30;93.10
12622;DHT22;6376;48.182;-1.644;2024-02-23T10:38:20;12.20;93.00
12622;DHT22;6376;48.182;-1.644;2024-02-23T10:40:47;12.30;93.20
12622;DHT22;6376;48.182;-1.644;2024-02-23T10:43:17;12.30;93.20
12622;DHT22;6376;48.182;-1.644;2024-02-23T10:45:45;12.30;93.20
12622;DHT22;6376;48.182;-1.644;2024-02-23T10:48:11;12.30;93.30
12622;DHT22;6376;48.182;-1.644;2024-02-23T10:50:38;12.30;93.20
12622;DHT22;6376;48.182;-1.644;2024-02-23T10:53:07;12.30;93.20
12622;DHT22;6376;48.182;-1.644;2024-02-23T10:55:36;12.30;93.10
12622;DHT22;6376;48.182;-1.644;2024-02-23T10:58:02;12.30;92.80
12622;DHT22;6376;48.182;-1.644;2024-02-23T11:00:29;12.30;92.90
12622;DHT22;6376;48.182;-1.644;2024-02-23T11:02:55;12.30;92.90
12622;DHT22;6376;48.182;-1.644;2024-02-23T11:05:23;12.30;93.00
12622;DHT22;6376;48.182;-1.644;2024-02-23T11:07:49;12.30;93.00
12622;DHT22;6376;48.182;-1.644;2024-02-23T11:10:16;12.30;93.00
12622;DHT22;6376;48.182;-1.644;2024-02-23T11:12:43;12.30;93.00
12622;DHT22;6376;48.182;-1.644;2024-02-23T11:15:09;12.40;93.00
12622;DHT22;6376;48.182;-1.644;2024-02-23T11:17:36;12.30;92.90
12622;DHT22;6376;48.182;-1.644;2024-02-23T11:20:04;12.30;93.00
12622;DHT22;6376;48.182;-1.644;2024-02-23T11:22:31;12.30;93.00
12622;DHT22;6376;48.182;-1.644;2024-02-23T11:25:04;12.30;93.00
12622;DHT22;6376;48.182;-1.644;2024-02-23T11:27:32;12.30;93.00
12622;DHT22;6376;48.182;-1.644;2024-02-23T11:30:05;12.40;93.10
12622;DHT22;6376;48.182;-1.644;2024-02-23T11:32:46;12.50;93.00
12622;DHT22;6376;48.182;-1.644;2024-02-23T11:35:14;12.60;92.60
12622;DHT22;6376;48.182;-1.644;2024-02-23T11:37:52;12.70;92.40
12622;DHT22;6376;48.182;-1.644;2024-02-23T11:40:30;12.70;92.30
12622;DHT22;6376;48.182;-1.644;2024-02-23T11:42:55;12.60;91.90
12622;DHT22;6376;48.182;-1.644;2024-02-23T11:45:21;12.60;92.00
12622;DHT22;6376;48.182;-1.644;2024-02-23T11:47:47;12.60;92.10
12622;DHT22;6376;48.182;-1.644;2024-02-23T11:50:13;12.60;92.20
12622;DHT22;6376;48.182;-1.644;2024-02-23T11:52:41;12.60;92.20
12622;DHT22;6376;48.182;-1.644;2024-02-23T11:55:07;12.60;92.20
12622;DHT22;6376;48.182;-1.644;2024-02-23T11:57:36;12.60;92.30
12622;DHT22;6376;48.182;-1.644;2024-02-23T12:00:06;12.60;92.30
12622;DHT22;6376;48.182;-1.644;2024-02-23T12:02:35;12.60;92.30
12622;DHT22;6376;48.182;-1.644;2024-02-23T12:05:01;12.70;92.30
12622;DHT22;6376;48.182;-1.644;2024-02-23T12:07:29;12.70;92.30
12622;DHT22;6376;48.182;-1.644;2024-02-23T12:09:56;12.70;92.30
12622;DHT22;6376;48.182;-1.644;2024-02-23T12:12:22;12.70;92.00
12622;DHT22;6376;48.182;-1.644;2024-02-23T12:14:48;12.60;91.90
12622;DHT22;6376;48.182;-1.644;2024-02-23T12:17:13;12.70;92.10
12622;DHT22;6376;48.182;-1.644;2024-02-23T12:19:40;12.70;92.00
12622;DHT22;6376;48.182;-1.644;2024-02-23T12:22:05;12.60;91.80
12622;DHT22;6376;48.182;-1.644;2024-02-23T12:24:31;12.70;92.00
12622;DHT22;6376;48.182;-1.644;2024-02-23T12:26:57;12.60;92.00
12622;DHT22;6376;48.182;-1.644;2024-02-23T12:29:23;12.60;92.00
12622;DHT22;6376;48.182;-1.644;2024-02-23T12:31:49;12.60;92.10
12622;DHT22;6376;48.182;-1.644;2024-02-23T12:34:15;12.60;92.20
12622;DHT22;6376;48.182;-1.644;2024-02-23T12:36:41;12.60;91.90
12622;DHT22;6376;48.182;-1.644;2024-02-23T12:39:07;12.60;92.10
12622;DHT22;6376;48.182;-1.644;2024-02-23T12:41:33;12.60;92.20
12622;DHT22;6376;48.182;-1.644;2024-02-23T12:43:59;12.60;92.20
12622;DHT22;6376;48.182;-1.644;2024-02-23T12:46:24;12.60;91.80
12622;DHT22;6376;48.182;-1.644;2024-02-23T12:48:50;12.60;92.10
12622;DHT22;6376;48.182;-1.644;2024-02-23T12:51:16;12.60;92.10
12622;DHT22;6376;48.182;-1.644;2024-02-23T12:53:42;12.60;92.20
12622;DHT22;6376;48.182;-1.644;2024-02-23T12:56:13;12.60;92.20
12622;DHT22;6376;48.182;-1.644;2024-02-23T12:58:40;12.60;91.90
12622;DHT22;6376;48.182;-1.644;2024-02-23T13:01:06;12.60;92.00
12622;DHT22;6376;48.182;-1.644;2024-02-23T13:03:33;12.60;92.10
12622;DHT22;6376;48.182;-1.644;2024-02-23T13:05:59;12.60;92.10
12622;DHT22;6376;48.182;-1.644;2024-02-23T13:08:25;12.60;92.10
12622;DHT22;6376;48.182;-1.644;2024-02-23T13:10:52;12.60;91.80
12622;DHT22;6376;48.182;-1.644;2024-02-23T13:13:18;12.60;91.80
12622;DHT22;6376;48.182;-1.644;2024-02-23T13:15:45;12.60;91.50
12622;DHT22;6376;48.182;-1.644;2024-02-23T13:18:11;12.60;91.70
12622;DHT22;6376;48.182;-1.644;2024-02-23T13:20:37;12.70;91.90
12622;DHT22;6376;48.182;-1.644;2024-02-23T13:23:04;12.60;91.80
12622;DHT22;6376;48.182;-1.644;2024-02-23T13:25:31;12.60;91.90
12622;DHT22;6376;48.182;-1.644;2024-02-23T13:27:57;12.60;91.90
12622;DHT22;6376;48.182;-1.644;2024-02-23T13:30:23;12.60;92.00
12622;DHT22;6376;48.182;-1.644;2024-02-23T13:32:49;12.60;92.10
12622;DHT22;6376;48.182;-1.644;2024-02-23T13:35:14;12.60;91.80
12622;DHT22;6376;48.182;-1.644;2024-02-23T13:37:41;12.50;91.50
12622;DHT22;6376;48.182;-1.644;2024-02-23T13:40:08;12.60;91.40
12622;DHT22;6376;48.182;-1.644;2024-02-23T13:42:36;12.50;91.60
12622;DHT22;6376;48.182;-1.644;2024-02-23T13:45:04;12.50;91.80
12622;DHT22;6376;48.182;-1.644;2024-02-23T13:47:30;12.50;91.80
12622;DHT22;6376;48.182;-1.644;2024-02-23T13:49:55;12.50;91.60
12622;DHT22;6376;48.182;-1.644;2024-02-23T13:52:21;12.50;91.70
12622;DHT22;6376;48.182;-1.644;2024-02-23T13:54:46;12.50;91.90
12622;DHT22;6376;48.182;-1.644;2024-02-23T13:57:12;12.40;92.00
12622;DHT22;6376;48.182;-1.644;2024-02-23T13:59:38;12.40;91.70
12622;DHT22;6376;48.182;-1.644;2024-02-23T14:02:03;12.40;92.10
12622;DHT22;6376;48.182;-1.644;2024-02-23T14:04:29;12.40;92.10
12622;DHT22;6376;48.182;-1.644;2024-02-23T14:06:55;12.40;92.00
12622;DHT22;6376;48.182;-1.644;2024-02-23T14:09:20;12.40;91.70
12622;DHT22;6376;48.182;-1.644;2024-02-23T14:11:46;12.40;92.00
12622;DHT22;6376;48.182;-1.644;2024-02-23T14:14:11;12.40;92.00
12622;DHT22;6376;48.182;-1.644;2024-02-23T14:16:37;12.40;91.80
12622;DHT22;6376;48.182;-1.644;2024-02-23T14:19:03;12.40;92.00
12622;DHT22;6376;48.182;-1.644;2024-02-23T14:21:28;12.40;91.90
12622;DHT22;6376;48.182;-1.644;2024-02-23T14:23:54;12.40;91.70
12622;DHT22;6376;48.182;-1.644;2024-02-23T14:26:20;12.40;92.10
12622;DHT22;6376;48.182;-1.644;2024-02-23T14:28:45;12.40;92.00
12622;DHT22;6376;48.182;-1.644;2024-02-23T14:31:11;12.30;91.90
12622;DHT22;6376;48.182;-1.644;2024-02-23T14:33:36;12.30;92.20
12622;DHT22;6376;48.182;-1.644;2024-02-23T14:36:02;12.40;92.20
12622;DHT22;6376;48.182;-1.644;2024-02-23T14:38:28;12.40;92.10
12622;DHT22;6376;48.182;-1.644;2024-02-23T14:40:54;12.40;92.20
12622;DHT22;6376;48.182;-1.644;2024-02-23T14:43:19;12.40;92.20
12622;DHT22;6376;48.182;-1.644;2024-02-23T14:45:45;12.40;92.30
12622;DHT22;6376;48.182;-1.644;2024-02-23T14:48:11;12.40;92.20
12622;DHT22;6376;48.182;-1.644;2024-02-23T14:50:36;12.40;91.90
12622;DHT22;6376;48.182;-1.644;2024-02-23T14:53:02;12.40;91.90
12622;DHT22;6376;48.182;-1.644;2024-02-23T14:55:28;12.40;92.10
12622;DHT22;6376;48.182;-1.644;2024-02-23T14:57:54;12.40;92.10
12622;DHT22;6376;48.182;-1.644;2024-02-23T15:00:20;12.40;92.10
12622;DHT22;6376;48.182;-1.644;2024-02-23T15:02:46;12.40;92.20
12622;DHT22;6376;48.182;-1.644;2024-02-23T15:05:11;12.40;92.20
12622;DHT22;6376;48.182;-1.644;2024-02-23T15:07:37;12.40;92.20
12622;DHT22;6376;48.182;-1.644;2024-02-23T15:10:03;12.40;92.20
12622;DHT22;6376;48.182;-1.644;2024-02-23T15:12:36;12.30;92.10
12622;DHT22;6376;48.182;-1.644;2024-02-23T15:15:02;12.30;91.90
12622;DHT22;6376;48.182;-1.644;2024-02-23T15:17:30;12.30;92.30
12622;DHT22;6376;48.182;-1.644;2024-02-23T15:19:55;12.30;92.00
12622;DHT22;6376;48.182;-1.644;2024-02-23T15:22:21;12.30;92.20
12622;DHT22;6376;48.182;-1.644;2024-02-23T15:24:46;12.30;92.30